createdAt,value
2022-12-24T00:00:34.786Z,957.93
2022-12-24T00:01:34.721Z,957.94
2022-12-24T00:02:34.988Z,957.91
2022-12-24T00:03:35.030Z,957.94
2022-12-24T00:04:34.691Z,957.95
2022-12-24T00:05:34.814Z,958
2022-12-24T00:06:34.767Z,958.03
2022-12-24T00:07:34.760Z,957.99
2022-12-24T00:08:34.692Z,958.02
2022-12-24T00:09:34.768Z,958
2022-12-24T00:10:34.857Z,958.04
2022-12-24T00:11:34.703Z,958.01
2022-12-24T00:12:34.769Z,958.03
2022-12-24T00:14:34.808Z,958.08
2022-12-24T00:15:34.777Z,958.06
2022-12-24T00:16:34.769Z,958.05
2022-12-24T00:17:34.715Z,958.08
2022-12-24T00:18:37.479Z,958.1
2022-12-24T00:19:34.903Z,958.15
2022-12-24T00:20:34.829Z,958.14
2022-12-24T00:21:34.907Z,958.17
2022-12-24T00:22:34.731Z,958.19
2022-12-24T00:23:34.837Z,958.21
2022-12-24T00:25:34.753Z,958.22
2022-12-24T00:26:34.824Z,958.27
2022-12-24T00:27:34.816Z,958.23
2022-12-24T00:28:34.881Z,958.25
2022-12-24T00:29:34.834Z,958.26
2022-12-24T00:30:34.940Z,958.21
2022-12-24T00:31:39.545Z,958.25
2022-12-24T00:32:39.035Z,958.26
2022-12-24T00:33:34.919Z,958.33
2022-12-24T00:34:34.871Z,958.36
2022-12-24T00:35:34.836Z,958.39
2022-12-24T00:36:34.778Z,958.41
2022-12-24T00:37:34.874Z,958.36
2022-12-24T00:38:34.846Z,958.39
2022-12-24T00:39:34.925Z,958.42
2022-12-24T00:40:34.781Z,958.48
2022-12-24T00:41:34.843Z,958.52
2022-12-24T00:42:34.920Z,958.55
2022-12-24T00:43:34.884Z,958.54
2022-12-24T00:47:35.029Z,958.53
2022-12-24T00:48:34.822Z,958.52
2022-12-24T00:50:34.826Z,958.53
2022-12-24T00:51:34.890Z,958.56
2022-12-24T00:52:34.937Z,958.51
2022-12-24T00:53:34.813Z,958.56
2022-12-24T00:55:34.905Z,958.52
2022-12-24T00:56:34.974Z,958.53
2022-12-24T00:57:34.942Z,958.55
2022-12-24T01:01:35.065Z,958.58
2022-12-24T01:02:35.209Z,958.57
2022-12-24T01:03:35.045Z,958.59
2022-12-24T01:05:36.200Z,958.56
2022-12-24T01:06:34.954Z,958.59
2022-12-24T01:07:34.923Z,958.55
2022-12-24T01:08:34.862Z,958.56
2022-12-24T01:09:34.965Z,958.55
2022-12-24T01:10:34.935Z,958.54
2022-12-24T01:11:34.999Z,958.53
2022-12-24T01:12:34.853Z,958.57
2022-12-24T01:13:34.938Z,958.64
2022-12-24T01:15:34.959Z,958.66
2022-12-24T01:16:35.012Z,958.74
2022-12-24T01:17:34.945Z,958.73
2022-12-24T01:19:35.136Z,958.84
2022-12-24T01:20:34.872Z,958.82
2022-12-24T01:21:34.882Z,958.77
2022-12-24T01:22:34.944Z,958.87
2022-12-24T01:23:37.321Z,958.89
2022-12-24T01:26:35.021Z,958.92
2022-12-24T01:28:34.921Z,958.95
2022-12-24T01:29:34.938Z,958.94
2022-12-24T01:30:34.991Z,958.99
2022-12-24T01:31:34.997Z,959
2022-12-24T01:32:35.029Z,958.95
2022-12-24T01:34:34.996Z,958.93
2022-12-24T01:35:34.921Z,958.94
2022-12-24T01:36:35.033Z,958.92
2022-12-24T01:37:34.961Z,958.97
2022-12-24T01:38:35.070Z,958.94
2022-12-24T01:39:34.970Z,958.98
2022-12-24T01:40:37.417Z,958.96
2022-12-24T01:42:34.922Z,958.95
2022-12-24T01:43:35.084Z,958.99
2022-12-24T01:44:36.821Z,958.95
2022-12-24T01:45:35.011Z,958.96
2022-12-24T01:46:35.180Z,958.99
2022-12-24T01:47:35.041Z,958.95
2022-12-24T01:48:35.023Z,958.98
2022-12-24T01:50:35.089Z,958.95
2022-12-24T01:52:35.000Z,958.93
2022-12-24T01:54:36.116Z,958.95
2022-12-24T01:55:35.013Z,958.96
2022-12-24T01:56:35.072Z,958.97
2022-12-24T01:57:35.031Z,958.99
2022-12-24T01:58:35.117Z,959.06
2022-12-24T01:59:35.054Z,959.05
2022-12-24T02:00:35.036Z,959.03
2022-12-24T02:01:35.214Z,959.04
2022-12-24T02:02:35.324Z,959.03
2022-12-24T02:03:35.153Z,959.06
2022-12-24T02:04:35.111Z,959.09
2022-12-24T02:05:35.003Z,959.11
2022-12-24T02:06:35.135Z,959.15
2022-12-24T02:07:35.114Z,959.14
2022-12-24T02:08:35.088Z,959.18
2022-12-24T02:09:35.013Z,959.19
2022-12-24T02:10:35.004Z,959.21
2022-12-24T02:11:35.087Z,959.27
2022-12-24T02:12:35.072Z,959.29
2022-12-24T02:13:35.007Z,959.28
2022-12-24T02:14:35.094Z,959.31
2022-12-24T02:15:35.151Z,959.29
2022-12-24T02:16:35.189Z,959.33
2022-12-24T02:17:35.093Z,959.34
2022-12-24T02:19:35.140Z,959.4
2022-12-24T02:20:35.123Z,959.39
2022-12-24T02:22:35.132Z,959.38
2022-12-24T02:23:35.095Z,959.36
2022-12-24T02:24:35.068Z,959.33
2022-12-24T02:25:35.132Z,959.31
2022-12-24T02:26:35.100Z,959.29
2022-12-24T02:27:35.190Z,959.32
2022-12-24T02:28:35.049Z,959.31
2022-12-24T02:29:35.104Z,959.34
2022-12-24T02:30:35.058Z,959.33
2022-12-24T02:31:35.257Z,959.35
2022-12-24T02:32:35.326Z,959.39
2022-12-24T02:33:35.184Z,959.42
2022-12-24T02:34:35.150Z,959.46
2022-12-24T02:35:35.062Z,959.52
2022-12-24T02:36:35.082Z,959.51
2022-12-24T02:37:35.153Z,959.52
2022-12-24T02:38:35.071Z,959.55
2022-12-24T02:39:35.081Z,959.52
2022-12-24T02:40:35.153Z,959.57
2022-12-24T02:41:35.253Z,959.59
2022-12-24T02:43:35.157Z,959.61
2022-12-24T02:44:35.074Z,959.64
2022-12-24T02:46:35.199Z,959.7
2022-12-24T02:47:35.093Z,959.68
2022-12-24T02:49:35.198Z,959.67
2022-12-24T02:52:35.254Z,959.66
2022-12-24T02:53:35.138Z,959.71
2022-12-24T02:54:35.207Z,959.69
2022-12-24T02:56:35.121Z,959.71
2022-12-24T02:57:35.213Z,959.72
2022-12-24T02:58:35.178Z,959.74
2022-12-24T02:59:35.128Z,959.75
2022-12-24T03:00:35.123Z,959.73
2022-12-24T03:01:35.407Z,959.78
2022-12-24T03:02:35.308Z,959.8
2022-12-24T03:03:35.168Z,959.76
2022-12-24T03:04:35.183Z,959.75
2022-12-24T03:05:35.258Z,959.77
2022-12-24T03:06:35.140Z,959.76
2022-12-24T03:07:35.199Z,959.74
2022-12-24T03:09:35.219Z,959.75
2022-12-24T03:10:35.307Z,959.73
2022-12-24T03:11:35.277Z,959.76
2022-12-24T03:12:35.231Z,959.71
2022-12-24T03:13:35.170Z,959.73
2022-12-24T03:14:35.170Z,959.72
2022-12-24T03:16:35.346Z,959.67
2022-12-24T03:17:35.271Z,959.7
2022-12-24T03:18:35.251Z,959.66
2022-12-24T03:19:36.532Z,959.61
2022-12-24T03:20:35.279Z,959.59
2022-12-24T03:22:35.318Z,959.6
2022-12-24T03:24:35.251Z,959.61
2022-12-24T03:25:36.557Z,959.63
2022-12-24T03:26:35.298Z,959.66
2022-12-24T03:27:35.260Z,959.65
2022-12-24T03:28:35.316Z,959.64
2022-12-24T03:29:35.268Z,959.63
2022-12-24T03:30:35.252Z,959.62
2022-12-24T03:31:35.248Z,959.63
2022-12-24T03:32:35.295Z,959.69
2022-12-24T03:33:35.266Z,959.67
2022-12-24T03:34:35.221Z,959.69
2022-12-24T03:35:35.325Z,959.68
2022-12-24T03:36:35.373Z,959.69
2022-12-24T03:39:35.370Z,959.74
2022-12-24T03:40:35.341Z,959.73
2022-12-24T03:41:35.301Z,959.71
2022-12-24T03:42:35.372Z,959.75
2022-12-24T03:43:35.338Z,959.73
2022-12-24T03:44:35.326Z,959.76
2022-12-24T03:45:35.323Z,959.75
2022-12-24T03:46:35.344Z,959.77
2022-12-24T03:47:35.340Z,959.82
2022-12-24T03:48:36.190Z,959.85
2022-12-24T03:49:35.359Z,959.92
2022-12-24T03:50:35.268Z,959.86
2022-12-24T03:51:36.231Z,959.84
2022-12-24T03:53:35.410Z,959.81
2022-12-24T03:54:35.416Z,959.78
2022-12-24T03:55:35.373Z,959.76
2022-12-24T03:56:35.358Z,959.72
2022-12-24T03:57:35.264Z,959.73
2022-12-24T03:58:35.258Z,959.72
2022-12-24T03:59:35.330Z,959.73
2022-12-24T04:00:35.405Z,959.76
2022-12-24T04:01:35.533Z,959.78
2022-12-24T04:02:35.439Z,959.79
2022-12-24T04:04:35.370Z,959.77
2022-12-24T04:05:35.439Z,959.8
2022-12-24T04:06:35.315Z,959.78
2022-12-24T04:07:35.380Z,959.77
2022-12-24T04:08:35.364Z,959.8
2022-12-24T04:10:35.387Z,959.79
2022-12-24T04:11:35.309Z,959.8
2022-12-24T04:12:35.416Z,959.76
2022-12-24T04:13:35.397Z,959.75
2022-12-24T04:14:35.347Z,959.73
2022-12-24T04:15:35.315Z,959.69
2022-12-24T04:16:35.420Z,959.7
2022-12-24T04:17:36.367Z,959.69
2022-12-24T04:18:35.317Z,959.66
2022-12-24T04:19:35.396Z,959.56
2022-12-24T04:20:35.313Z,959.54
2022-12-24T04:21:35.425Z,959.51
2022-12-24T04:22:35.412Z,959.54
2022-12-24T04:23:35.330Z,959.53
2022-12-24T04:24:35.426Z,959.6
2022-12-24T04:25:35.412Z,959.63
2022-12-24T04:26:35.469Z,959.67
2022-12-24T04:27:35.457Z,959.74
2022-12-24T04:28:35.409Z,959.79
2022-12-24T04:29:35.524Z,959.83
2022-12-24T04:30:35.466Z,959.92
2022-12-24T04:31:35.470Z,959.99
2022-12-24T04:32:35.529Z,960.03
2022-12-24T04:33:35.455Z,960.06
2022-12-24T04:34:35.402Z,960.12
2022-12-24T04:35:35.543Z,960.15
2022-12-24T04:36:35.446Z,960.09
2022-12-24T04:37:35.405Z,960.06
2022-12-24T04:38:35.383Z,960.05
2022-12-24T04:39:35.458Z,960.04
2022-12-24T04:40:35.424Z,960.07
2022-12-24T04:41:35.525Z,960.09
2022-12-24T04:42:35.468Z,960.16
2022-12-24T04:43:35.447Z,960.21
2022-12-24T04:44:35.482Z,960.24
2022-12-24T04:46:35.387Z,960.27
2022-12-24T04:49:35.498Z,960.26
2022-12-24T04:50:35.543Z,960.27
2022-12-24T04:51:35.390Z,960.32
2022-12-24T04:52:35.390Z,960.27
2022-12-24T04:53:35.604Z,960.21
2022-12-24T04:54:35.396Z,960.16
2022-12-24T04:55:35.556Z,960.22
2022-12-24T04:57:35.391Z,960.23
2022-12-24T04:59:35.420Z,960.28
2022-12-24T05:00:35.396Z,960.26
2022-12-24T05:02:35.657Z,960.21
2022-12-24T05:03:35.439Z,960.25
2022-12-24T05:04:35.457Z,960.22
2022-12-24T05:05:35.430Z,960.25
2022-12-24T05:06:35.446Z,960.21
2022-12-24T05:07:35.564Z,960.25
2022-12-24T05:08:35.432Z,960.26
2022-12-24T05:10:35.575Z,960.28
2022-12-24T05:11:35.451Z,960.34
2022-12-24T05:12:35.483Z,960.35
2022-12-24T05:13:42.440Z,960.37
2022-12-24T05:14:35.444Z,960.4
2022-12-24T05:15:35.505Z,960.44
2022-12-24T05:16:35.511Z,960.47
2022-12-24T05:17:35.559Z,960.53
2022-12-24T05:18:36.727Z,960.56
2022-12-24T05:19:35.571Z,960.59
2022-12-24T05:20:35.545Z,960.62
2022-12-24T05:21:35.463Z,960.58
2022-12-24T05:22:35.459Z,960.59
2022-12-24T05:23:35.554Z,960.61
2022-12-24T05:24:35.611Z,960.58
2022-12-24T05:27:35.559Z,960.55
2022-12-24T05:28:35.591Z,960.57
2022-12-24T05:29:35.556Z,960.55
2022-12-24T05:30:35.534Z,960.62
2022-12-24T05:31:35.609Z,960.64
2022-12-24T05:33:35.626Z,960.62
2022-12-24T05:34:35.599Z,960.61
2022-12-24T05:35:35.524Z,960.62
2022-12-24T05:36:35.665Z,960.64
2022-12-24T05:37:35.589Z,960.66
2022-12-24T05:39:35.507Z,960.63
2022-12-24T05:40:35.593Z,960.62
2022-12-24T05:41:35.571Z,960.6
2022-12-24T05:42:35.666Z,960.62
2022-12-24T05:43:35.614Z,960.64
2022-12-24T05:44:35.581Z,960.63
2022-12-24T05:45:35.545Z,960.62
2022-12-24T05:46:35.721Z,960.65
2022-12-24T05:48:35.648Z,960.66
2022-12-24T05:49:35.604Z,960.62
2022-12-24T05:51:35.559Z,960.65
2022-12-24T05:52:35.572Z,960.64
2022-12-24T05:53:35.582Z,960.67
2022-12-24T05:54:35.579Z,960.69
2022-12-24T05:55:35.537Z,960.72
2022-12-24T05:56:35.583Z,960.75
2022-12-24T05:57:35.548Z,960.77
2022-12-24T05:59:35.543Z,960.81
2022-12-24T06:00:35.661Z,960.85
2022-12-24T06:01:35.711Z,960.87
2022-12-24T06:02:35.634Z,960.86
2022-12-24T06:03:35.677Z,960.91
2022-12-24T06:04:35.711Z,960.89
2022-12-24T06:05:35.786Z,960.88
2022-12-24T06:06:35.595Z,960.86
2022-12-24T06:07:35.597Z,960.9
2022-12-24T06:08:35.574Z,960.88
2022-12-24T06:09:35.664Z,960.92
2022-12-24T06:10:35.651Z,960.88
2022-12-24T06:11:35.632Z,960.92
2022-12-24T06:12:35.698Z,960.9
2022-12-24T06:13:35.638Z,960.92
2022-12-24T06:14:35.724Z,960.98
2022-12-24T06:15:35.713Z,960.96
2022-12-24T06:16:35.705Z,960.98
2022-12-24T06:17:35.590Z,960.97
2022-12-24T06:18:35.688Z,960.98
2022-12-24T06:19:35.658Z,960.99
2022-12-24T06:20:35.742Z,960.95
2022-12-24T06:21:35.603Z,960.96
2022-12-24T06:24:35.672Z,960.95
2022-12-24T06:27:35.700Z,960.96
2022-12-24T06:28:35.672Z,961.03
2022-12-24T06:29:35.747Z,961.05
2022-12-24T06:30:35.630Z,961.11
2022-12-24T06:31:35.883Z,961.09
2022-12-24T06:32:35.737Z,961.12
2022-12-24T06:33:35.708Z,961.13
2022-12-24T06:34:36.652Z,961.16
2022-12-24T06:35:35.747Z,961.15
2022-12-24T06:37:35.705Z,961.14
2022-12-24T06:38:35.767Z,961.17
2022-12-24T06:39:35.728Z,961.18
2022-12-24T06:40:35.777Z,961.16
2022-12-24T06:41:35.656Z,961.17
2022-12-24T06:42:35.728Z,961.2
2022-12-24T06:43:35.665Z,961.17
2022-12-24T06:44:35.754Z,961.19
2022-12-24T06:45:35.912Z,961.23
2022-12-24T06:46:35.773Z,961.17
2022-12-24T06:48:35.720Z,961.16
2022-12-24T06:49:35.792Z,961.14
2022-12-24T06:50:35.764Z,961.18
2022-12-24T06:51:35.724Z,961.23
2022-12-24T06:52:35.799Z,961.26
2022-12-24T06:53:35.774Z,961.29
2022-12-24T06:55:35.691Z,961.27
2022-12-24T06:56:35.768Z,961.29
2022-12-24T06:57:35.745Z,961.25
2022-12-24T06:58:35.726Z,961.27
2022-12-24T06:59:35.687Z,961.22
2022-12-24T07:00:35.749Z,961.24
2022-12-24T07:01:35.934Z,961.26
2022-12-24T07:02:35.857Z,961.31
2022-12-24T07:03:35.773Z,961.33
2022-12-24T07:04:35.827Z,961.4
2022-12-24T07:05:35.819Z,961.38
2022-12-24T07:06:35.844Z,961.43
2022-12-24T07:07:35.822Z,961.45
2022-12-24T07:08:35.786Z,961.47
2022-12-24T07:09:35.715Z,961.53
2022-12-24T07:10:35.835Z,961.54
2022-12-24T07:11:35.805Z,961.57
2022-12-24T07:12:35.864Z,961.59
2022-12-24T07:13:35.852Z,961.65
2022-12-24T07:15:35.811Z,961.63
2022-12-24T07:16:36.028Z,961.61
2022-12-24T07:18:35.801Z,961.64
2022-12-24T07:20:35.742Z,961.68
2022-12-24T07:21:35.876Z,961.67
2022-12-24T07:22:35.748Z,961.73
2022-12-24T07:23:35.741Z,961.74
2022-12-24T07:24:35.886Z,961.76
2022-12-24T07:25:35.760Z,961.8
2022-12-24T07:26:35.810Z,961.77
2022-12-24T07:28:35.878Z,961.84
2022-12-24T07:29:35.816Z,961.8
2022-12-24T07:30:35.766Z,961.83
2022-12-24T07:31:35.950Z,961.89
2022-12-24T07:32:35.833Z,961.87
2022-12-24T07:33:35.793Z,961.88
2022-12-24T07:35:35.939Z,961.86
2022-12-24T07:36:35.941Z,961.88
2022-12-24T07:37:35.780Z,961.87
2022-12-24T07:38:35.928Z,961.89
2022-12-24T07:39:35.913Z,961.86
2022-12-24T07:40:35.870Z,961.9
2022-12-24T07:41:41.444Z,961.91
2022-12-24T07:42:35.903Z,961.92
2022-12-24T07:43:35.862Z,961.9
2022-12-24T07:44:35.939Z,961.95
2022-12-24T07:45:35.816Z,961.94
2022-12-24T07:46:35.966Z,961.97
2022-12-24T07:47:35.949Z,962
2022-12-24T07:48:35.927Z,961.96
2022-12-24T07:49:35.883Z,961.98
2022-12-24T07:50:35.862Z,961.99
2022-12-24T07:51:35.910Z,962.01
2022-12-24T07:52:35.827Z,962
2022-12-24T07:53:35.971Z,962.04
2022-12-24T07:54:35.925Z,962.07
2022-12-24T07:55:35.889Z,962.05
2022-12-24T07:56:37.121Z,962.09
2022-12-24T07:57:35.930Z,962.08
2022-12-24T07:58:36.035Z,962.06
2022-12-24T07:59:35.844Z,962
2022-12-24T08:00:35.951Z,962.02
2022-12-24T08:01:37.201Z,961.99
2022-12-24T08:02:35.915Z,961.97
2022-12-24T08:03:36.042Z,961.96
2022-12-24T08:04:36.006Z,961.99
2022-12-24T08:05:35.974Z,961.98
2022-12-24T08:06:35.938Z,962.03
2022-12-24T08:07:35.900Z,962.04
2022-12-24T08:08:35.853Z,961.98
2022-12-24T08:09:35.932Z,961.99
2022-12-24T08:10:36.012Z,961.97
2022-12-24T08:11:36.005Z,962.03
2022-12-24T08:12:35.937Z,962.04
2022-12-24T08:13:35.878Z,962.07
2022-12-24T08:14:35.989Z,962.12
2022-12-24T08:15:35.963Z,962.13
2022-12-24T08:16:37.266Z,962.15
2022-12-24T08:17:35.983Z,962.2
2022-12-24T08:18:35.951Z,962.23
2022-12-24T08:19:35.944Z,962.26
2022-12-24T08:20:35.990Z,962.23
2022-12-24T08:21:35.957Z,962.25
2022-12-24T08:22:35.883Z,962.29
2022-12-24T08:23:35.982Z,962.3
2022-12-24T08:24:35.895Z,962.31
2022-12-24T08:26:36.008Z,962.32
2022-12-24T08:27:35.965Z,962.33
2022-12-24T08:28:36.040Z,962.32
2022-12-24T08:29:35.998Z,962.34
2022-12-24T08:30:35.907Z,962.33
2022-12-24T08:31:36.060Z,962.34
2022-12-24T08:32:36.012Z,962.32
2022-12-24T08:33:35.978Z,962.31
2022-12-24T08:35:35.946Z,962.27
2022-12-24T08:36:35.985Z,962.22
2022-12-24T08:37:35.934Z,962.19
2022-12-24T08:38:36.011Z,962.14
2022-12-24T08:39:35.933Z,962.16
2022-12-24T08:40:36.049Z,962.19
2022-12-24T08:42:36.202Z,962.21
2022-12-24T08:43:36.062Z,962.17
2022-12-24T08:44:36.027Z,962.18
2022-12-24T08:45:40.080Z,962.19
2022-12-24T08:46:36.104Z,962.2
2022-12-24T08:47:36.022Z,962.26
2022-12-24T08:48:35.990Z,962.24
2022-12-24T08:49:36.052Z,962.22
2022-12-24T08:50:36.031Z,962.25
2022-12-24T08:51:36.122Z,962.22
2022-12-24T08:52:35.967Z,962.24
2022-12-24T08:53:36.040Z,962.23
2022-12-24T08:54:36.106Z,962.27
2022-12-24T08:55:36.087Z,962.29
2022-12-24T08:56:35.968Z,962.28
2022-12-24T08:57:36.027Z,962.31
2022-12-24T08:59:36.040Z,962.3
2022-12-24T09:00:36.121Z,962.33
2022-12-24T09:01:36.127Z,962.32
2022-12-24T09:02:36.153Z,962.33
2022-12-24T09:03:36.022Z,962.36
2022-12-24T09:04:35.990Z,962.38
2022-12-24T09:05:36.055Z,962.45
2022-12-24T09:06:36.998Z,962.51
2022-12-24T09:07:36.004Z,962.49
2022-12-24T09:08:36.054Z,962.56
2022-12-24T09:09:37.806Z,962.57
2022-12-24T09:10:36.091Z,962.55
2022-12-24T09:11:37.028Z,962.59
2022-12-24T09:12:36.115Z,962.58
2022-12-24T09:15:36.241Z,962.57
2022-12-24T09:16:36.197Z,962.56
2022-12-24T09:17:36.094Z,962.55
2022-12-24T09:18:36.024Z,962.54
2022-12-24T09:19:36.101Z,962.57
2022-12-24T09:21:36.145Z,962.58
2022-12-24T09:23:36.044Z,962.55
2022-12-24T09:24:36.139Z,962.56
2022-12-24T09:25:36.111Z,962.59
2022-12-24T09:26:36.124Z,962.56
2022-12-24T09:27:36.048Z,962.57
2022-12-24T09:29:36.092Z,962.59
2022-12-24T09:30:36.063Z,962.57
2022-12-24T09:31:36.091Z,962.58
2022-12-24T09:32:36.061Z,962.54
2022-12-24T09:33:36.168Z,962.56
2022-12-24T09:34:36.150Z,962.54
2022-12-24T09:35:36.216Z,962.57
2022-12-24T09:36:36.159Z,962.6
2022-12-24T09:37:36.142Z,962.55
2022-12-24T09:39:36.151Z,962.58
2022-12-24T09:42:36.262Z,962.63
2022-12-24T09:43:37.237Z,962.61
2022-12-24T09:44:36.216Z,962.64
2022-12-24T09:45:36.185Z,962.62
2022-12-24T09:46:36.245Z,962.64
2022-12-24T09:47:36.095Z,962.7
2022-12-24T09:48:36.096Z,962.63
2022-12-24T09:49:36.249Z,962.69
2022-12-24T09:50:36.244Z,962.66
2022-12-24T09:51:36.212Z,962.69
2022-12-24T09:52:36.265Z,962.67
2022-12-24T09:53:36.225Z,962.68
2022-12-24T09:54:36.179Z,962.66
2022-12-24T09:55:36.126Z,962.71
2022-12-24T09:56:36.121Z,962.74
2022-12-24T09:57:36.188Z,962.79
2022-12-24T09:58:36.258Z,962.8
2022-12-24T09:59:36.231Z,962.81
2022-12-24T10:01:36.253Z,962.83
2022-12-24T10:04:36.241Z,962.87
2022-12-24T10:05:36.260Z,962.84
2022-12-24T10:06:36.259Z,962.83
2022-12-24T10:09:36.275Z,962.81
2022-12-24T10:10:36.306Z,962.85
2022-12-24T10:12:36.428Z,962.82
2022-12-24T10:13:36.159Z,962.81
2022-12-24T10:14:36.241Z,962.85
2022-12-24T10:15:36.315Z,962.81
2022-12-24T10:18:36.168Z,962.85
2022-12-24T10:19:36.286Z,962.87
2022-12-24T10:20:36.261Z,962.85
2022-12-24T10:21:36.156Z,962.87
2022-12-24T10:22:36.166Z,962.82
2022-12-24T10:23:36.255Z,962.87
2022-12-24T10:24:36.354Z,962.89
2022-12-24T10:25:36.297Z,962.83
2022-12-24T10:26:36.185Z,962.82
2022-12-24T10:27:37.504Z,962.77
2022-12-24T10:28:36.317Z,962.74
2022-12-24T10:29:36.277Z,962.72
2022-12-24T10:30:36.373Z,962.73
2022-12-24T10:31:36.291Z,962.74
2022-12-24T10:32:36.273Z,962.75
2022-12-24T10:33:37.646Z,962.76
2022-12-24T10:34:36.355Z,962.8
2022-12-24T10:35:36.192Z,962.76
2022-12-24T10:36:36.243Z,962.81
2022-12-24T10:38:36.304Z,962.87
2022-12-24T10:39:37.592Z,962.86
2022-12-24T10:40:36.315Z,962.9
2022-12-24T10:41:36.239Z,962.87
2022-12-24T10:42:36.352Z,962.86
2022-12-24T10:43:36.614Z,962.88
2022-12-24T10:44:36.223Z,962.89
2022-12-24T10:45:36.355Z,962.91
2022-12-24T10:46:36.420Z,962.92
2022-12-24T10:48:36.224Z,962.91
2022-12-24T10:49:36.235Z,962.9
2022-12-24T10:50:36.389Z,962.86
2022-12-24T10:51:36.237Z,962.9
2022-12-24T10:52:36.367Z,962.88
2022-12-24T10:53:36.393Z,962.91
2022-12-24T10:54:36.365Z,962.87
2022-12-24T10:55:36.333Z,962.86
2022-12-24T10:56:36.399Z,962.85
2022-12-24T10:57:36.370Z,962.84
2022-12-24T10:58:36.297Z,962.8
2022-12-24T10:59:37.688Z,962.79
2022-12-24T11:00:36.869Z,962.8
2022-12-24T11:01:36.365Z,962.81
2022-12-24T11:02:37.956Z,962.71
2022-12-24T11:03:36.330Z,962.72
2022-12-24T11:04:36.337Z,962.7
2022-12-24T11:05:36.284Z,962.74
2022-12-24T11:06:36.380Z,962.7
2022-12-24T11:08:36.403Z,962.68
2022-12-24T11:09:36.393Z,962.65
2022-12-24T11:10:36.348Z,962.63
2022-12-24T11:11:36.334Z,962.62
2022-12-24T11:13:38.192Z,962.63
2022-12-24T11:14:36.478Z,962.64
2022-12-24T11:15:36.410Z,962.63
2022-12-24T11:16:36.366Z,962.61
2022-12-24T11:17:36.424Z,962.65
2022-12-24T11:19:36.372Z,962.7
2022-12-24T11:20:36.324Z,962.71
2022-12-24T11:21:36.302Z,962.69
2022-12-24T11:22:36.359Z,962.71
2022-12-24T11:24:36.425Z,962.73
2022-12-24T11:25:36.365Z,962.72
2022-12-24T11:26:36.450Z,962.71
2022-12-24T11:28:36.470Z,962.69
2022-12-24T11:32:36.442Z,962.67
2022-12-24T11:33:36.350Z,962.62
2022-12-24T11:34:37.387Z,962.63
2022-12-24T11:35:36.336Z,962.66
2022-12-24T11:36:36.336Z,962.65
2022-12-24T11:37:36.377Z,962.66
2022-12-24T11:40:36.541Z,962.64
2022-12-24T11:41:36.368Z,962.66
2022-12-24T11:43:36.375Z,962.65
2022-12-24T11:44:36.359Z,962.62
2022-12-24T11:45:36.369Z,962.6
2022-12-24T11:46:36.515Z,962.62
2022-12-24T11:47:36.492Z,962.64
2022-12-24T11:48:36.531Z,962.62
2022-12-24T11:49:36.424Z,962.63
2022-12-24T11:50:36.571Z,962.62
2022-12-24T11:51:36.437Z,962.68
2022-12-24T11:52:36.419Z,962.67
2022-12-24T11:53:36.472Z,962.68
2022-12-24T11:54:36.435Z,962.69
2022-12-24T11:55:36.505Z,962.72
2022-12-24T11:56:36.425Z,962.71
2022-12-24T11:57:36.443Z,962.74
2022-12-24T11:58:36.514Z,962.73
2022-12-24T12:00:36.479Z,962.71
2022-12-24T12:01:36.590Z,962.68
2022-12-24T12:02:36.495Z,962.65
2022-12-24T12:03:36.591Z,962.6
2022-12-24T12:04:36.533Z,962.57
2022-12-24T12:05:36.507Z,962.56
2022-12-24T12:06:36.413Z,962.54
2022-12-24T12:07:36.522Z,962.52
2022-12-24T12:08:36.410Z,962.49
2022-12-24T12:09:36.556Z,962.51
2022-12-24T12:11:36.496Z,962.5
2022-12-24T12:12:36.562Z,962.51
2022-12-24T12:13:36.532Z,962.47
2022-12-24T12:14:36.499Z,962.41
2022-12-24T12:15:36.578Z,962.44
2022-12-24T12:17:36.549Z,962.48
2022-12-24T12:18:36.511Z,962.47
2022-12-24T12:19:36.539Z,962.46
2022-12-24T12:20:36.509Z,962.47
2022-12-24T12:21:36.482Z,962.42
2022-12-24T12:22:36.551Z,962.39
2022-12-24T12:23:36.515Z,962.41
2022-12-24T12:25:36.556Z,962.43
2022-12-24T12:26:36.523Z,962.48
2022-12-24T12:28:36.552Z,962.51
2022-12-24T12:29:37.723Z,962.48
2022-12-24T12:30:36.480Z,962.46
2022-12-24T12:32:36.692Z,962.43
2022-12-24T12:33:36.604Z,962.42
2022-12-24T12:35:36.492Z,962.41
2022-12-24T12:37:36.525Z,962.45
2022-12-24T12:38:36.642Z,962.5
2022-12-24T12:39:36.601Z,962.55
2022-12-24T12:40:36.565Z,962.58
2022-12-24T12:43:36.642Z,962.64
2022-12-24T12:44:36.663Z,962.63
2022-12-24T12:45:36.622Z,962.61
2022-12-24T12:46:36.632Z,962.58
2022-12-24T12:47:36.642Z,962.57
2022-12-24T12:48:36.613Z,962.56
2022-12-24T12:49:36.592Z,962.55
2022-12-24T12:50:36.657Z,962.53
2022-12-24T12:51:36.530Z,962.49
2022-12-24T12:52:36.584Z,962.48
2022-12-24T12:53:36.547Z,962.47
2022-12-24T12:54:36.626Z,962.51
2022-12-24T12:55:36.588Z,962.47
2022-12-24T12:57:36.529Z,962.45
2022-12-24T12:58:36.582Z,962.4
2022-12-24T12:59:36.546Z,962.37
2022-12-24T13:00:36.589Z,962.34
2022-12-24T13:02:36.612Z,962.37
2022-12-24T13:03:36.549Z,962.38
2022-12-24T13:05:36.591Z,962.4
2022-12-24T13:06:36.653Z,962.38
2022-12-24T13:07:38.094Z,962.39
2022-12-24T13:08:36.674Z,962.37
2022-12-24T13:09:36.664Z,962.36
2022-12-24T13:10:37.988Z,962.35
2022-12-24T13:11:36.688Z,962.33
2022-12-24T13:14:36.725Z,962.36
2022-12-24T13:15:36.650Z,962.38
2022-12-24T13:16:36.824Z,962.42
2022-12-24T13:17:36.685Z,962.4
2022-12-24T13:18:36.659Z,962.43
2022-12-24T13:19:38.381Z,962.45
2022-12-24T13:20:36.700Z,962.46
2022-12-24T13:21:36.664Z,962.44
2022-12-24T13:22:36.584Z,962.45
2022-12-24T13:23:36.691Z,962.46
2022-12-24T13:25:38.061Z,962.43
2022-12-24T13:26:36.696Z,962.46
2022-12-24T13:27:36.659Z,962.43
2022-12-24T13:29:36.688Z,962.42
2022-12-24T13:31:36.808Z,962.43
2022-12-24T13:33:36.784Z,962.46
2022-12-24T13:34:36.752Z,962.49
2022-12-24T13:36:38.162Z,962.48
2022-12-24T13:37:36.765Z,962.5
2022-12-24T13:38:36.647Z,962.48
2022-12-24T13:40:36.645Z,962.46
2022-12-24T13:41:39.761Z,962.48
2022-12-24T13:42:36.787Z,962.49
2022-12-24T13:43:36.752Z,962.46
2022-12-24T13:44:36.730Z,962.47
2022-12-24T13:45:36.805Z,962.46
2022-12-24T13:47:36.646Z,962.47
2022-12-24T13:48:36.658Z,962.44
2022-12-24T13:49:36.762Z,962.46
2022-12-24T13:50:36.728Z,962.43
2022-12-24T13:51:37.703Z,962.46
2022-12-24T13:53:36.733Z,962.48
2022-12-24T13:54:36.695Z,962.47
2022-12-24T13:56:36.764Z,962.49
2022-12-24T13:57:36.732Z,962.5
2022-12-24T13:58:36.774Z,962.51
2022-12-24T13:59:38.808Z,962.47
2022-12-24T14:00:36.749Z,962.43
2022-12-24T14:01:36.890Z,962.46
2022-12-24T14:02:36.921Z,962.41
2022-12-24T14:03:36.820Z,962.36
2022-12-24T14:04:36.786Z,962.37
2022-12-24T14:05:36.707Z,962.36
2022-12-24T14:06:36.710Z,962.37
2022-12-24T14:07:36.802Z,962.42
2022-12-24T14:08:36.711Z,962.47
2022-12-24T14:09:36.702Z,962.48
2022-12-24T14:10:36.793Z,962.5
2022-12-24T14:11:38.109Z,962.53
2022-12-24T14:12:36.840Z,962.54
2022-12-24T14:14:36.944Z,962.58
2022-12-24T14:15:36.840Z,962.55
2022-12-24T14:16:36.812Z,962.56
2022-12-24T14:17:36.763Z,962.57
2022-12-24T14:19:37.663Z,962.6
2022-12-24T14:21:36.941Z,962.59
2022-12-24T14:22:36.732Z,962.58
2022-12-24T14:23:36.873Z,962.63
2022-12-24T14:25:36.809Z,962.62
2022-12-24T14:26:36.880Z,962.64
2022-12-24T14:27:36.748Z,962.66
2022-12-24T14:28:36.837Z,962.62
2022-12-24T14:29:36.890Z,962.64
2022-12-24T14:30:36.852Z,962.62
2022-12-24T14:31:36.852Z,962.58
2022-12-24T14:32:36.892Z,962.59
2022-12-24T14:33:36.861Z,962.57
2022-12-24T14:34:36.936Z,962.58
2022-12-24T14:35:36.780Z,962.57